createdAt,value
2022-09-13T00:03:12.736Z,101240.59
2022-09-13T00:06:37.719Z,101237.94
2022-09-13T00:10:02.705Z,101245.75
2022-09-13T00:13:29.761Z,101254.47
2022-09-13T00:16:53.782Z,101267.28
2022-09-13T00:20:17.784Z,101252.53
2022-09-13T00:23:41.738Z,101257.69
2022-09-13T00:27:06.693Z,101241.81
2022-09-13T00:30:30.776Z,101243.56
2022-09-13T00:33:54.702Z,101224.38
2022-09-13T00:37:18.742Z,101221.94
2022-09-13T00:40:42.697Z,101223.69
2022-09-13T00:44:14.782Z,101209.25
2022-09-13T00:47:52.714Z,101202.41
2022-09-13T00:51:16.742Z,101219.03
2022-09-13T00:54:44.716Z,101207.69
2022-09-13T00:58:08.781Z,101210.47
2022-09-13T01:01:34.754Z,101211.91
2022-09-13T01:04:58.757Z,101215.78
2022-09-13T01:08:30.742Z,101217.41
2022-09-13T01:12:12.755Z,101205.41
2022-09-13T01:15:37.799Z,101210.84
2022-09-13T01:19:02.747Z,101197.28
2022-09-13T01:23:05.713Z,101187.47
2022-09-13T01:26:50.813Z,101192.06
2022-09-13T01:30:20.752Z,101187.97
2022-09-13T01:34:09.780Z,101190.16
2022-09-13T01:37:58.760Z,101165.69
2022-09-13T01:41:43.808Z,101168.94
2022-09-13T01:45:50.798Z,101149.91
2022-09-13T01:49:49.806Z,101155.31
2022-09-13T01:53:48.864Z,101135.56
2022-09-13T01:57:21.760Z,101136.56
2022-09-13T02:00:50.756Z,101145.03
2022-09-13T02:04:41.805Z,101135.22
2022-09-13T02:08:31.831Z,101173.13
2022-09-13T02:11:56.720Z,101159.63
2022-09-13T02:15:25.915Z,101152.19
2022-09-13T02:19:02.760Z,101153.59
2022-09-13T02:22:28.777Z,101145.16
2022-09-13T02:25:53.759Z,101142.19
2022-09-13T02:29:24.791Z,101146.34
2022-09-13T02:33:04.759Z,101126.53
2022-09-13T02:36:36.821Z,101122.72
2022-09-13T02:39:57.787Z,101114.88
2022-09-13T02:43:36.888Z,101115.19
2022-09-13T02:47:22.801Z,101104.25
2022-09-13T02:50:56.818Z,101113.97
2022-09-13T02:54:47.803Z,101126.28
2022-09-13T02:58:36.872Z,101124.09
2022-09-13T03:02:25.845Z,101113.81
2022-09-13T03:05:48.807Z,101136.09
2022-09-13T03:09:15.850Z,101138.75
2022-09-13T03:13:07.809Z,101116.78
2022-09-13T03:16:55.854Z,101102.03
2022-09-13T03:20:40.772Z,101113.03
2022-09-13T03:24:25.853Z,101115.66
2022-09-13T03:28:32.761Z,101114.38
2022-09-13T03:31:49.861Z,101128.50
2022-09-13T03:35:17.795Z,101170.41
2022-09-13T03:39:05.825Z,101186.72
2022-09-13T03:42:36.842Z,101196.81
2022-09-13T03:46:13.865Z,101185.34
2022-09-13T03:49:38.814Z,101203.06
2022-09-13T03:53:05.811Z,101207.56
2022-09-13T03:56:32.837Z,101199.50
2022-09-13T04:00:07.853Z,101189.22
2022-09-13T04:03:31.796Z,101197.56
2022-09-13T04:06:48.915Z,101201.97
2022-09-13T04:10:13.815Z,101184.06
2022-09-13T04:13:37.866Z,101177.03
2022-09-13T04:17:01.789Z,101163.13
2022-09-13T04:20:25.848Z,101163.31
2022-09-13T04:23:49.839Z,101146.28
2022-09-13T04:27:13.872Z,101138.41
2022-09-13T04:30:42.015Z,101154.00
2022-09-13T04:34:08.817Z,101161.84
2022-09-13T04:37:31.798Z,101165.97
2022-09-13T04:40:56.823Z,101181.09
2022-09-13T04:44:15.443Z,101182.53
2022-09-13T04:47:32.833Z,101175.84
2022-09-13T04:50:55.853Z,101183.94
2022-09-13T04:54:20.861Z,101184.41
2022-09-13T04:57:44.849Z,101173.16
2022-09-13T05:01:08.926Z,101190.44
2022-09-13T05:04:32.796Z,101179.38
2022-09-13T05:07:56.844Z,101189.50
2022-09-13T05:11:22.815Z,101193.88
2022-09-13T05:14:39.906Z,101212.63
2022-09-13T05:18:03.831Z,101213.03
2022-09-13T05:21:29.877Z,101219.75
2022-09-13T05:24:53.886Z,101219.50
2022-09-13T05:28:17.837Z,101223.59
2022-09-13T05:31:47.018Z,101228.34
2022-09-13T05:35:10.830Z,101227.44
2022-09-13T05:38:35.906Z,101235.22
2022-09-13T05:41:59.876Z,101235.22
2022-09-13T05:45:24.895Z,101230.47
2022-09-13T05:48:50.001Z,101225.25
2022-09-13T05:52:13.919Z,101231.22
2022-09-13T05:55:36.903Z,101227.50
2022-09-13T05:59:03.842Z,101229.94
2022-09-13T06:02:27.847Z,101228.38
2022-09-13T06:05:51.895Z,101223.50
2022-09-13T06:09:16.873Z,101223.97
2022-09-13T06:12:40.849Z,101221.34
2022-09-13T06:16:03.888Z,101229.03
2022-09-13T06:19:27.855Z,101218.53
2022-09-13T06:22:52.863Z,101231.84
2022-09-13T06:26:26.891Z,101212.97
2022-09-13T06:29:50.989Z,101228.47
2022-09-13T06:33:14.844Z,101241.28
2022-09-13T06:36:38.905Z,101243.88
2022-09-13T06:40:02.949Z,101248.75
2022-09-13T06:43:27.920Z,101258.66
2022-09-13T06:46:45.535Z,101255.75
2022-09-13T06:50:02.918Z,101245.34
2022-09-13T06:53:27.858Z,101264.25
2022-09-13T06:56:52.880Z,101262.84
2022-09-13T07:00:16.901Z,101260.25
2022-09-13T07:03:42.920Z,101261.13
2022-09-13T07:07:07.913Z,101264.31
2022-09-13T07:10:31.889Z,101270.06
2022-09-13T07:13:54.926Z,101268.75
2022-09-13T07:17:18.928Z,101261.22
2022-09-13T07:20:41.890Z,101271.69
2022-09-13T07:24:06.851Z,101269.56
2022-09-13T07:27:30.910Z,101299.50
2022-09-13T07:30:56.004Z,101306.22
2022-09-13T07:34:21.939Z,101322.69
2022-09-13T07:37:45.922Z,101320.09
2022-09-13T07:41:14.911Z,101322.94
2022-09-13T07:44:40.028Z,101320.88
2022-09-13T07:47:57.438Z,101339.50
2022-09-13T07:51:20.930Z,101334.19
2022-09-13T07:54:45.859Z,101330.94
2022-09-13T07:58:10.959Z,101333.84
2022-09-13T08:01:42.997Z,101324.91
2022-09-13T08:05:06.932Z,101343.56
2022-09-13T08:08:30.902Z,101347.44
2022-09-13T08:12:00.954Z,101354.47
2022-09-13T08:15:24.909Z,101361.25
2022-09-13T08:18:48.965Z,101351.06
2022-09-13T08:22:12.881Z,101362.91
2022-09-13T08:25:36.965Z,101372.28
2022-09-13T08:29:00.913Z,101386.25
2022-09-13T08:32:24.980Z,101378.03
2022-09-13T08:35:49.891Z,101383.69
2022-09-13T08:39:15.958Z,101391.44
2022-09-13T08:42:51.918Z,101395.91
2022-09-13T08:46:19.976Z,101398.47
2022-09-13T08:49:40.524Z,101402.78
2022-09-13T08:53:16.925Z,101394.78
2022-09-13T08:57:01.926Z,101392.34
2022-09-13T09:00:37.891Z,101387.63
2022-09-13T09:04:30.979Z,101391.25
2022-09-13T09:08:00.896Z,101387.44
2022-09-13T09:11:52.937Z,101388.66
2022-09-13T09:15:28.960Z,101380.19
2022-09-13T09:18:56.937Z,101390.50
2022-09-13T09:22:31.926Z,101397.88
2022-09-13T09:25:55.987Z,101398.03
2022-09-13T09:29:29.962Z,101399.88
2022-09-13T09:33:21.955Z,101409.25
2022-09-13T09:36:49.998Z,101406.75
2022-09-13T09:40:18.056Z,101400.59
2022-09-13T09:43:48.031Z,101400.72
2022-09-13T09:47:29.543Z,101415.91
2022-09-13T09:50:55.997Z,101419.81
2022-09-13T09:54:20.981Z,101420.78
2022-09-13T09:58:26.940Z,101425.41
2022-09-13T10:01:53.037Z,101427.00
2022-09-13T10:05:20.959Z,101427.22
2022-09-13T10:08:50.002Z,101416.41
2022-09-13T10:12:14.925Z,101414.13
2022-09-13T10:15:45.985Z,101414.38
2022-09-13T10:19:11.575Z,101409.91
2022-09-13T10:22:37.004Z,101406.91
2022-09-13T10:26:10.952Z,101399.72
2022-09-13T10:29:34.985Z,101405.06
2022-09-13T10:32:58.953Z,101404.56
2022-09-13T10:36:53.126Z,101410.59
2022-09-13T10:40:36.973Z,101407.84
2022-09-13T10:44:00.937Z,101411.38
2022-09-13T10:48:08.014Z,101418.97
2022-09-13T10:51:45.562Z,101414.13
2022-09-13T10:55:10.962Z,101407.09
2022-09-13T10:58:34.982Z,101403.72
2022-09-13T11:02:18.936Z,101419.88
2022-09-13T11:06:20.026Z,101418.44
2022-09-13T11:10:04.021Z,101408.88
2022-09-13T11:13:46.136Z,101419.44
2022-09-13T11:17:15.979Z,101404.25
2022-09-13T11:21:15.952Z,101404.31
2022-09-13T11:24:42.977Z,101402.50
2022-09-13T11:28:18.957Z,101397.97
2022-09-13T11:32:18.044Z,101407.84
2022-09-13T11:35:59.991Z,101404.22
2022-09-13T11:39:25.091Z,101409.88
2022-09-13T11:43:03.960Z,101417.81
2022-09-13T11:47:06.042Z,101415.00
2022-09-13T11:50:38.995Z,101417.09
2022-09-13T11:54:42.985Z,101408.84
2022-09-13T11:58:15.035Z,101412.59
2022-09-13T12:01:54.061Z,101418.34
2022-09-13T12:05:35.050Z,101425.75
2022-09-13T12:09:05.998Z,101423.69
2022-09-13T12:12:30.001Z,101437.00
2022-09-13T12:15:56.007Z,101429.78
2022-09-13T12:19:35.012Z,101426.78
2022-09-13T12:23:00.004Z,101429.53
2022-09-13T12:26:50.046Z,101431.47
2022-09-13T12:30:33.995Z,101440.16
2022-09-13T12:33:58.007Z,101435.66
2022-09-13T12:37:37.022Z,101443.22
2022-09-13T12:41:30.009Z,101434.75
2022-09-13T12:45:25.075Z,101438.84
2022-09-13T12:49:04.001Z,101442.00
2022-09-13T12:52:32.032Z,101440.94
2022-09-13T12:56:02.042Z,101451.31
2022-09-13T12:59:43.048Z,101446.47
2022-09-13T13:03:19.996Z,101459.75
2022-09-13T13:06:54.049Z,101458.09
2022-09-13T13:10:16.995Z,101465.94
2022-09-13T13:13:55.001Z,101477.59
2022-09-13T13:17:49.078Z,101461.50
2022-09-13T13:21:12.979Z,101469.38
2022-09-13T13:24:37.073Z,101460.28
2022-09-13T13:28:02.994Z,101465.16
2022-09-13T13:31:47.074Z,101462.09
2022-09-13T13:35:10.989Z,101462.47
2022-09-13T13:38:44.016Z,101463.44
2022-09-13T13:42:10.997Z,101462.56
2022-09-13T13:45:41.128Z,101459.56
2022-09-13T13:49:05.043Z,101480.16
2022-09-13T13:52:33.002Z,101473.56
2022-09-13T13:56:00.086Z,101478.16
2022-09-13T13:59:31.991Z,101460.50
2022-09-13T14:03:06.093Z,101453.47
2022-09-13T14:06:34.988Z,101466.25
2022-09-13T14:10:09.086Z,101459.44
2022-09-13T14:13:44.996Z,101450.78
2022-09-13T14:17:32.086Z,101450.63
2022-09-13T14:21:19.022Z,101467.03
2022-09-13T14:24:43.040Z,101477.66
2022-09-13T14:28:12.025Z,101460.38
2022-09-13T14:31:36.181Z,101463.88
2022-09-13T14:35:09.018Z,101448.28
2022-09-13T14:38:44.081Z,101453.41
2022-09-13T14:42:22.036Z,101446.47
2022-09-13T14:45:51.082Z,101452.94
2022-09-13T14:49:18.013Z,101449.59
2022-09-13T14:52:49.033Z,101450.44
2022-09-13T14:56:19.020Z,101439.88
2022-09-13T14:59:49.046Z,101456.41
2022-09-13T15:03:20.026Z,101450.81
2022-09-13T15:06:52.061Z,101443.91
2022-09-13T15:10:29.066Z,101451.41
2022-09-13T15:13:53.048Z,101443.56
2022-09-13T15:17:27.103Z,101435.19
2022-09-13T15:21:04.090Z,101441.19
2022-09-13T15:24:48.085Z,101447.28
2022-09-13T15:28:13.039Z,101443.22
2022-09-13T15:31:39.159Z,101439.31
2022-09-13T15:35:05.049Z,101436.22
2022-09-13T15:38:42.118Z,101446.59
2022-09-13T15:42:14.043Z,101439.53
2022-09-13T15:45:38.093Z,101425.97
2022-09-13T15:49:09.081Z,101432.19
2022-09-13T15:52:35.080Z,101440.53
2022-09-13T15:56:00.056Z,101443.22
2022-09-13T15:59:30.106Z,101454.16
2022-09-13T16:02:54.120Z,101452.06
2022-09-13T16:06:18.098Z,101455.41
2022-09-13T16:09:46.076Z,101460.34
2022-09-13T16:13:10.075Z,101443.81
2022-09-13T16:16:34.150Z,101439.78
2022-09-13T16:19:57.081Z,101436.63
2022-09-13T16:23:21.086Z,101457.72
2022-09-13T16:26:46.088Z,101455.13
2022-09-13T16:30:10.047Z,101441.34
2022-09-13T16:33:34.100Z,101447.81
2022-09-13T16:36:58.055Z,101445.75
2022-09-13T16:40:22.189Z,101441.22
2022-09-13T16:43:46.082Z,101456.91
2022-09-13T16:47:09.094Z,101451.78
2022-09-13T16:50:26.654Z,101453.22
2022-09-13T16:53:47.103Z,101446.25
2022-09-13T16:57:12.047Z,101442.16
2022-09-13T17:00:37.244Z,101462.06
2022-09-13T17:04:01.120Z,101458.69
2022-09-13T17:07:25.149Z,101447.16
2022-09-13T17:10:49.127Z,101450.88
2022-09-13T17:14:13.089Z,101452.91
2022-09-13T17:17:42.129Z,101466.28
2022-09-13T17:21:07.100Z,101462.81
2022-09-13T17:24:31.081Z,101490.38
2022-09-13T17:27:55.101Z,101495.47
2022-09-13T17:31:19.202Z,101501.59
2022-09-13T17:34:43.102Z,101518.00
2022-09-13T17:38:06.084Z,101517.94
2022-09-13T17:41:33.153Z,101515.28
2022-09-13T17:44:57.139Z,101506.44
2022-09-13T17:48:21.103Z,101502.50
2022-09-13T17:51:46.164Z,101503.81
2022-09-13T17:55:11.126Z,101508.25
2022-09-13T17:58:35.129Z,101520.44
2022-09-13T18:02:09.166Z,101518.41
2022-09-13T18:05:32.132Z,101522.97
2022-09-13T18:08:56.104Z,101530.97
2022-09-13T18:12:20.098Z,101518.22
2022-09-13T18:15:44.228Z,101517.38
2022-09-13T18:19:08.126Z,101525.03
2022-09-13T18:22:33.173Z,101531.44
2022-09-13T18:26:01.691Z,101541.16
2022-09-13T18:29:28.130Z,101535.78
2022-09-13T18:32:52.106Z,101539.25
2022-09-13T18:36:20.186Z,101541.34
2022-09-13T18:39:44.194Z,101556.81
2022-09-13T18:43:07.175Z,101561.34
2022-09-13T18:46:33.165Z,101566.47
2022-09-13T18:49:58.136Z,101591.88
2022-09-13T18:53:15.676Z,101599.78
2022-09-13T18:56:42.135Z,101590.06
2022-09-13T19:00:07.085Z,101592.97
2022-09-13T19:03:30.275Z,101604.94
2022-09-13T19:06:56.095Z,101608.47
2022-09-13T19:10:20.157Z,101605.38
2022-09-13T19:13:46.172Z,101610.97
2022-09-13T19:17:12.156Z,101629.00
2022-09-13T19:20:36.166Z,101621.75
2022-09-13T19:24:04.051Z,101611.56
2022-09-13T19:27:32.157Z,101617.03
2022-09-13T19:30:58.140Z,101628.28
2022-09-13T19:34:23.155Z,101633.25
2022-09-13T19:37:47.156Z,101632.28
2022-09-13T19:41:15.199Z,101640.44
2022-09-13T19:44:39.125Z,101641.34
2022-09-13T19:51:52.104Z,101647.69
2022-09-13T19:55:08.709Z,101640.88
2022-09-13T19:58:33.141Z,101652.94
2022-09-13T20:01:59.253Z,101668.75
2022-09-13T20:05:28.145Z,101664.47
2022-09-13T20:08:52.155Z,101676.69
2022-09-13T20:12:17.172Z,101677.13
2022-09-13T20:15:42.296Z,101679.44
2022-09-13T20:19:23.594Z,101683.94
2022-09-13T20:22:43.208Z,101693.94
2022-09-13T20:26:07.186Z,101685.69
2022-09-13T20:29:32.133Z,101687.31
2022-09-13T20:32:57.225Z,101694.56
2022-09-13T20:36:30.142Z,101695.31
2022-09-13T20:39:55.227Z,101689.13
2022-09-13T20:43:19.185Z,101683.63
2022-09-13T20:46:42.184Z,101694.91
2022-09-13T20:50:07.196Z,101699.09
2022-09-13T20:53:30.220Z,101707.28
2022-09-13T20:56:54.137Z,101705.78
2022-09-13T21:00:20.193Z,101700.69
2022-09-13T21:03:44.144Z,101701.53
2022-09-13T21:07:26.227Z,101708.22
2022-09-13T21:10:50.188Z,101716.59
2022-09-13T21:14:19.196Z,101710.16
2022-09-13T21:17:43.156Z,101714.09
2022-09-13T21:21:11.232Z,101711.69
2022-09-13T21:24:35.176Z,101710.56
2022-09-13T21:28:00.191Z,101704.63
2022-09-13T21:31:30.298Z,101698.75
2022-09-13T21:34:54.241Z,101698.28
2022-09-13T21:38:18.213Z,101690.91
2022-09-13T21:41:43.228Z,101699.66
2022-09-13T21:45:07.175Z,101707.16
2022-09-13T21:48:31.241Z,101709.72
2022-09-13T21:52:03.231Z,101752.28
2022-09-13T21:55:27.248Z,101759.91
2022-09-13T21:58:52.187Z,101745.25
2022-09-13T22:02:16.283Z,101752.53
2022-09-13T22:05:39.226Z,101744.09
2022-09-13T22:09:08.192Z,101730.28
2022-09-13T22:12:32.188Z,101730.16
2022-09-13T22:15:56.243Z,101729.28
2022-09-13T22:19:28.228Z,101733.78
2022-09-13T22:22:52.244Z,101733.31
2022-09-13T22:26:19.187Z,101724.03
2022-09-13T22:29:43.223Z,101721.47
2022-09-13T22:33:07.232Z,101715.59
2022-09-13T22:36:32.229Z,101717.78
2022-09-13T22:39:56.294Z,101705.47
2022-09-13T22:43:21.223Z,101703.84
2022-09-13T22:46:50.266Z,101707.50
2022-09-13T22:50:14.285Z,101712.78
2022-09-13T22:53:38.221Z,101700.75
2022-09-13T22:57:02.244Z,101698.28
2022-09-13T23:00:27.264Z,101693.13
2022-09-13T23:03:52.461Z,101685.88
2022-09-13T23:07:17.267Z,101689.88
2022-09-13T23:10:41.255Z,101681.53
2022-09-13T23:14:07.266Z,101675.72
2022-09-13T23:17:30.258Z,101670.00
2022-09-13T23:20:54.279Z,101688.22
2022-09-13T23:24:19.212Z,101678.31
2022-09-13T23:27:43.234Z,101678.19
2022-09-13T23:31:07.232Z,101688.44
2022-09-13T23:34:31.236Z,101714.47
2022-09-13T23:37:57.281Z,101712.03
2022-09-13T23:41:21.217Z,101718.63
2022-09-13T23:44:45.297Z,101709.75
2022-09-13T23:48:09.278Z,101694.81
2022-09-13T23:51:39.295Z,101697.44
2022-09-13T23:55:05.235Z,101691.81
2022-09-13T23:58:29.286Z,101685.03
